Time;durP1;ratioP1;P1;durP2;ratioP2;P2;SDS_P1;SDS_P2;PMS_P1;PMS_P2;Temp;Humidity;BMP_temperature;BMP_pressure;BME280_temperature;BME280_humidity;BME280_pressure;Samples;Min_cycle;Max_cycle;Signal;HPM_P1;HPM_P2
2021/12/25 00:01:47;;;;;;;23.45;18.65;;;;;;;9.77;67.21;99905.06;5037251;27;102703;-48
2021/12/25 00:04:14;;;;;;;24.70;17.60;;;;;;;9.78;67.20;99916.75;5036884;27;102690;-49
2021/12/25 00:06:42;;;;;;;22.58;18.52;;;;;;;9.78;67.68;99906.69;5043970;27;102380;-48
2021/12/25 00:09:08;;;;;;;24.25;19.05;;;;;;;9.77;67.68;99918.66;5037405;27;104148;-50
2021/12/25 00:11:35;;;;;;;24.33;18.67;;;;;;;9.78;67.75;99924.88;5043210;27;102171;-51
2021/12/25 00:14:09;;;;;;;23.65;19.05;;;;;;;9.78;67.77;99925.69;5039165;27;104193;-50
2021/12/25 00:16:38;;;;;;;21.60;17.73;;;;;;;9.77;67.94;99924.09;5045966;27;102484;-48
2021/12/25 00:19:06;;;;;;;23.05;18.33;;;;;;;9.78;67.49;99930.31;5045215;27;103970;-48
2021/12/25 00:21:32;;;;;;;23.02;18.92;;;;;;;9.78;67.47;99935.75;5039437;27;103762;-48
2021/12/25 00:23:59;;;;;;;22.70;17.73;;;;;;;9.78;67.24;99947.44;5039956;27;102310;-47
2021/12/25 00:26:42;;;;;;;25.23;18.90;;;;;;;9.78;67.80;99942.00;5043619;27;102204;-50
2021/12/25 00:34:33;;;;;;;24.42;18.25;;;;;;;9.76;67.48;99927.88;5045025;27;102536;-47
2021/12/25 00:37:00;;;;;;;23.10;19.40;;;;;;;9.77;67.88;99921.38;5041712;27;102299;-50
2021/12/25 00:39:29;;;;;;;24.23;19.27;;;;;;;9.78;67.38;99916.75;5043080;27;103759;-48
2021/12/25 00:41:56;;;;;;;23.27;19.48;;;;;;;9.77;67.42;99924.09;5040605;27;102690;-48
2021/12/25 00:44:23;;;;;;;20.70;18.27;;;;;;;9.77;67.82;99923.25;5040073;27;102188;-48
2021/12/25 00:46:49;;;;;;;25.35;18.20;;;;;;;9.77;67.47;99924.09;5036300;27;106365;-48
2021/12/25 00:49:17;;;;;;;23.20;19.05;;;;;;;9.77;67.78;99929.53;5043759;27;104023;-48
2021/12/25 00:51:43;;;;;;;24.00;19.88;;;;;;;9.77;67.97;99924.09;5049804;27;103586;-47
2021/12/25 00:54:12;;;;;;;22.15;18.60;;;;;;;9.77;67.22;99925.97;5042212;27;102206;-51
2021/12/25 00:56:38;;;;;;;23.27;18.80;;;;;;;9.77;67.15;99923.25;5037850;27;102190;-48
2021/12/25 00:59:05;;;;;;;26.75;19.92;;;;;;;9.77;67.49;99925.97;5045364;27;104006;-47
2021/12/25 01:01:33;;;;;;;24.07;18.57;;;;;;;9.77;67.30;99917.81;5039999;27;102224;-49
2021/12/25 01:04:00;;;;;;;26.30;19.70;;;;;;;9.77;67.81;99918.66;5035036;27;105714;-50
2021/12/25 01:06:28;;;;;;;23.63;19.00;;;;;;;9.76;67.79;99917.00;5041733;27;102132;-50
2021/12/25 01:08:54;;;;;;;23.23;19.33;;;;;;;9.77;67.68;99913.22;5039331;27;108208;-48
2021/12/25 01:11:23;;;;;;;24.83;19.60;;;;;;;9.77;68.11;99917.81;5031539;27;102171;-51
2021/12/25 01:13:58;;;;;;;22.70;18.25;;;;;;;9.77;67.82;99910.50;5037177;27;102035;-47
2021/12/25 01:22:19;;;;;;;24.33;19.52;;;;;;;9.77;67.28;99896.91;5050543;27;102127;-51
2021/12/25 01:30:43;;;;;;;24.30;19.77;;;;;;;9.77;67.11;99901.50;5040017;27;104047;-49
2021/12/25 01:49:10;;;;;;;26.95;19.30;;;;;;;9.76;68.09;99913.47;5033816;27;102331;-47
2021/12/25 01:51:37;;;;;;;25.73;20.15;;;;;;;9.76;67.62;99917.00;5036315;27;106998;-48
2021/12/25 01:54:05;;;;;;;23.85;19.95;;;;;;;9.76;67.77;99922.44;5033063;27;102282;-48
2021/12/25 01:56:32;;;;;;;23.63;19.65;;;;;;;9.76;67.73;99922.44;5047257;27;102188;-48
2021/12/25 01:58:59;;;;;;;24.63;20.65;;;;;;;9.77;67.23;99923.25;5046802;27;102318;-48
2021/12/25 02:01:25;;;;;;;21.88;19.08;;;;;;;9.77;67.75;99937.66;5042689;27;103923;-49
2021/12/25 02:03:52;;;;;;;26.80;20.50;;;;;;;9.77;67.77;99934.13;5044106;27;102466;-48
2021/12/25 02:06:18;;;;;;;22.80;18.88;;;;;;;9.76;67.98;99933.31;5039058;27;101977;-48
2021/12/25 02:08:45;;;;;;;23.25;19.38;;;;;;;9.76;67.65;99938.75;5044110;27;103097;-48
2021/12/25 02:11:14;;;;;;;23.98;20.20;;;;;;;9.76;67.32;99937.94;5042270;27;104174;-48
2021/12/25 02:13:42;;;;;;;23.45;19.10;;;;;;;9.76;67.76;99933.31;5050073;27;102418;-48
2021/12/25 02:16:13;;;;;;;22.60;19.08;;;;;;;9.76;67.40;99922.44;5050264;27;103094;-48
2021/12/25 02:18:55;;;;;;;25.23;20.30;;;;;;;9.76;67.47;99917.00;5053697;27;102467;-48
2021/12/25 02:21:30;;;;;;;23.77;18.90;;;;;;;9.76;68.23;99922.44;5041171;27;103848;-49
2021/12/25 02:23:57;;;;;;;23.25;19.02;;;;;;;9.76;67.23;99914.28;5051455;27;102300;-48
2021/12/25 02:26:24;;;;;;;23.05;18.55;;;;;;;9.76;67.68;99906.13;5053608;27;102476;-49
2021/12/25 02:28:53;;;;;;;;;;;;;;;9.77;67.82;99907.78;5040645;27;102223;-48
2021/12/25 02:31:20;;;;;;;22.35;18.88;;;;;;;9.77;67.43;99904.22;5039028;27;103844;-49
2021/12/25 02:33:47;;;;;;;23.75;19.30;;;;;;;9.75;67.95;99899.09;5046639;27;102358;-48
2021/12/25 02:36:15;;;;;;;23.77;19.67;;;;;;;9.77;67.84;99906.94;5043415;27;102185;-50
2021/12/25 02:38:44;;;;;;;23.55;18.95;;;;;;;9.76;67.76;99911.56;5051234;27;102341;-50
2021/12/25 02:41:11;;;;;;;25.27;20.38;;;;;;;9.76;67.25;99900.69;5047533;27;104981;-48
2021/12/25 02:43:38;;;;;;;22.67;19.35;;;;;;;9.77;68.13;99904.22;5049061;27;102353;-47
2021/12/25 02:46:05;;;;;;;24.98;19.52;;;;;;;9.77;67.36;99913.22;5038161;27;102173;-49
2021/12/25 02:48:36;;;;;;;24.00;19.35;;;;;;;9.77;67.73;99913.22;5040654;27;102804;-48
2021/12/25 02:51:04;;;;;;;23.45;19.85;;;;;;;9.78;67.53;99914.81;5049290;27;104048;-49
2021/12/25 02:53:32;;;;;;;33.55;30.40;;;;;;;9.76;67.50;99903.41;5036570;27;102269;-47
2021/12/25 02:55:59;;;;;;;24.98;19.52;;;;;;;9.76;67.45;99911.56;5037315;27;103077;-47
2021/12/25 02:58:26;;;;;;;24.85;20.73;;;;;;;9.76;67.86;99906.13;5037567;27;102356;-50
2021/12/25 03:00:55;;;;;;;26.02;20.95;;;;;;;9.77;67.49;99912.38;5051126;27;103954;-48
2021/12/25 03:03:22;;;;;;;24.40;20.52;;;;;;;9.76;67.80;99922.44;5041994;27;102378;-49
2021/12/25 03:05:49;;;;;;;25.40;20.50;;;;;;;9.77;68.04;99923.25;5036396;27;102101;-50
2021/12/25 03:08:16;;;;;;;24.20;19.77;;;;;;;9.76;68.25;99918.91;5038374;27;102719;-47
2021/12/25 03:10:43;;;;;;;26.15;20.48;;;;;;;9.76;68.15;99925.16;5039863;27;104044;-47
2021/12/25 03:15:46;;;;;;;23.48;20.15;;;;;;;9.78;67.51;99924.88;5044604;27;103190;-47
2021/12/25 03:18:14;;;;;;;24.80;19.85;;;;;;;9.76;67.54;99927.88;5047246;27;102484;-48
2021/12/25 03:20:45;;;;;;;23.58;19.35;;;;;;;9.77;67.63;99943.09;5039211;27;103701;-49
2021/12/25 03:23:12;;;;;;;24.55;19.40;;;;;;;9.76;68.13;99941.47;5045844;27;102151;-51
2021/12/25 03:25:39;;;;;;;24.70;20.30;;;;;;;9.77;67.89;99951.25;5039651;27;102446;-48
2021/12/25 03:28:05;;;;;;;24.05;19.65;;;;;;;9.76;67.93;99946.91;5037485;27;102778;-49
2021/12/25 03:30:37;;;;;;;23.50;19.17;;;;;;;9.76;67.91;99949.63;5046281;27;103917;-48
2021/12/25 03:33:04;;;;;;;24.85;19.50;;;;;;;9.77;67.85;99945.81;5047648;27;102126;-50
2021/12/25 03:35:33;;;;;;;24.58;19.67;;;;;;;9.76;67.67;99949.63;5042513;27;102507;-50
2021/12/25 03:38:00;;;;;;;25.00;19.77;;;;;;;9.77;67.70;99944.97;5043679;27;102854;-47
2021/12/25 03:40:26;;;;;;;25.42;20.48;;;;;;;9.76;67.98;99949.63;5045701;27;103886;-48
2021/12/25 03:42:53;;;;;;;24.88;20.52;;;;;;;9.76;67.84;99957.75;5049772;27;102074;-47
2021/12/25 03:45:20;;;;;;;25.00;20.27;;;;;;;9.77;67.42;99944.97;5046792;27;102652;-50
2021/12/25 03:47:50;;;;;;;23.45;20.25;;;;;;;9.77;67.43;99955.84;5044993;27;102473;-49
2021/12/25 03:53:25;;;;;;;25.50;21.00;;;;;;;9.77;68.17;99955.84;5038135;27;102535;-47
2021/12/25 03:58:37;;;;;;;27.35;21.27;;;;;;;9.77;67.49;99955.84;5048488;27;104795;-49
2021/12/25 04:04:17;;;;;;;26.63;21.77;;;;;;;9.76;67.65;99965.91;4971658;28;102694;-50
2021/12/25 04:06:58;;;;;;;27.88;22.75;;;;;;;9.77;67.78;99969.44;5027351;27;102508;-50
2021/12/25 04:09:27;;;;;;;26.92;21.42;;;;;;;9.76;67.33;99971.34;5037104;27;102481;-47
2021/12/25 04:11:56;;;;;;;27.75;22.52;;;;;;;9.76;67.35;99965.91;5052350;27;104203;-48
2021/12/25 04:14:23;;;;;;;27.97;22.73;;;;;;;9.77;67.96;99975.72;5036420;27;102431;-47
2021/12/25 04:16:50;;;;;;;29.67;22.30;;;;;;;9.77;67.71;99973.00;5051558;27;102140;-51
2021/12/25 04:19:18;;;;;;;27.80;22.50;;;;;;;9.76;67.35;99965.91;5038602;27;102238;-48
2021/12/25 04:24:24;;;;;;;24.58;21.58;;;;;;;9.77;68.26;99977.59;5052642;27;102380;-47
2021/12/25 04:26:51;;;;;;;26.50;22.27;;;;;;;9.76;68.29;99982.22;5038364;27;103413;-48
2021/12/25 04:32:16;;;;;;;26.10;21.75;;;;;;;9.76;67.82;99995.00;5046403;27;103891;-48
2021/12/25 05:04:33;;;;;;;27.92;21.20;;;;;;;9.77;67.39;100021.06;5038563;27;103793;-50
2021/12/25 05:07:02;;;;;;;25.85;21.58;;;;;;;9.76;67.74;100016.75;5038614;27;104018;-47
2021/12/25 05:09:29;;;;;;;25.83;21.40;;;;;;;9.76;68.03;100009.41;5036127;27;102567;-48
2021/12/25 05:11:55;;;;;;;26.92;22.80;;;;;;;9.75;67.48;100013.22;5037523;27;102173;-47
2021/12/25 05:14:21;;;;;;;25.75;22.95;;;;;;;9.76;67.40;100020.25;5033730;27;103841;-48
2021/12/25 05:16:48;;;;;;;25.17;21.90;;;;;;;9.76;68.16;100020.25;5036189;27;103277;-48
2021/12/25 05:19:14;;;;;;;26.38;21.98;;;;;;;9.76;68.09;100019.47;5052083;27;102320;-48
2021/12/25 05:21:41;;;;;;;27.33;21.73;;;;;;;9.76;68.18;100025.69;5038916;27;102162;-48
2021/12/25 05:24:09;;;;;;;26.75;22.65;;;;;;;9.75;67.73;100018.66;5047445;27;104016;-47
2021/12/25 05:26:36;;;;;;;28.27;23.13;;;;;;;9.76;68.03;100025.69;5035228;27;102171;-47
2021/12/25 05:29:05;;;;;;;26.58;22.77;;;;;;;9.75;68.26;100032.22;5036765;27;102266;-48
2021/12/25 05:31:34;;;;;;;26.60;22.60;;;;;;;9.75;68.44;100037.66;5046145;27;102043;-48
2021/12/25 05:34:01;;;;;;;28.23;22.00;;;;;;;9.75;68.09;100034.94;5049100;27;103935;-48
2021/12/25 05:36:28;;;;;;;27.13;22.75;;;;;;;9.76;67.67;100041.19;5048929;27;102271;-48
2021/12/25 05:38:57;;;;;;;28.40;22.52;;;;;;;9.74;67.81;100044.22;5037936;27;102814;-47
2021/12/25 05:41:26;;;;;;;27.67;22.35;;;;;;;9.76;67.90;100049.34;5037569;27;102618;-48
2021/12/25 05:43:53;;;;;;;27.00;21.70;;;;;;;9.75;67.60;100055.88;5049272;27;103975;-47
2021/12/25 05:46:19;;;;;;;24.17;21.30;;;;;;;9.75;68.35;100067.56;5038273;27;102233;-50
2021/12/25 05:48:48;;;;;;;27.83;21.92;;;;;;;9.75;68.05;100072.19;5047534;27;102285;-50
2021/12/25 05:51:15;;;;;;;27.10;22.42;;;;;;;9.75;67.66;100078.44;5047191;27;103889;-48
2021/12/25 05:53:41;;;;;;;25.80;21.90;;;;;;;9.75;67.63;100081.16;5040388;27;103883;-48
2021/12/25 05:56:08;;;;;;;23.52;20.27;;;;;;;9.75;68.31;100100.16;5036156;27;102387;-51
2021/12/25 05:58:37;;;;;;;26.50;21.10;;;;;;;9.76;68.04;100096.34;5040442;27;102122;-49
2021/12/25 06:01:05;;;;;;;24.17;20.23;;;;;;;9.75;68.16;100094.72;5040258;27;104151;-47
2021/12/25 06:03:32;;;;;;;24.92;20.13;;;;;;;9.76;68.44;100100.97;5035136;27;103924;-47
2021/12/25 06:05:59;;;;;;;23.05;19.50;;;;;;;9.76;68.37;100107.22;5035672;27;102219;-48
2021/12/25 06:08:26;;;;;;;25.90;20.02;;;;;;;9.76;67.87;100107.22;5037204;27;102168;-50
2021/12/25 06:10:53;;;;;;;24.25;19.48;;;;;;;9.75;68.25;100105.59;5034667;27;102580;-48
2021/12/25 06:13:21;;;;;;;23.92;20.30;;;;;;;9.77;67.70;100108.03;5042893;27;104220;-48
2021/12/25 06:15:54;;;;;;;24.13;20.17;;;;;;;9.77;68.10;100110.75;5049712;27;102479;-49
2021/12/25 06:18:20;;;;;;;23.48;20.00;;;;;;;9.77;68.40;100117.00;5046384;27;102258;-48
2021/12/25 06:20:47;;;;;;;24.05;19.83;;;;;;;9.77;67.76;100124.31;5049395;27;102254;-49
2021/12/25 06:23:13;;;;;;;23.77;19.10;;;;;;;9.77;67.76;100119.72;5035865;27;103879;-47
2021/12/25 06:25:40;;;;;;;23.52;19.58;;;;;;;9.76;68.21;100123.53;5039103;27;102257;-47
2021/12/25 06:28:07;;;;;;;23.63;19.70;;;;;;;9.76;67.52;100131.69;5046370;27;103210;-48
2021/12/25 06:30:34;;;;;;;22.00;19.00;;;;;;;9.77;68.39;100130.59;5037406;27;102348;-48
2021/12/25 06:33:01;;;;;;;23.45;19.27;;;;;;;9.78;67.85;100142.28;5041568;27;104008;-47
2021/12/25 06:35:28;;;;;;;23.92;19.80;;;;;;;9.77;68.23;100141.47;5044803;27;102845;-51
2021/12/25 06:37:54;;;;;;;23.90;19.67;;;;;;;9.77;68.21;100146.91;5041535;27;105764;-47
2021/12/25 06:40:22;;;;;;;23.35;19.60;;;;;;;9.78;68.01;100161.31;5043588;27;102385;-48
2021/12/25 06:42:49;;;;;;;23.80;18.80;;;;;;;9.78;67.83;100153.97;5042974;27;104539;-47
2021/12/25 06:45:15;;;;;;;22.88;18.70;;;;;;;9.77;67.86;100152.34;5037704;27;102104;-47
2021/12/25 06:47:42;;;;;;;21.50;18.10;;;;;;;9.77;67.87;100157.78;5038250;27;102105;-48
2021/12/25 06:50:11;;;;;;;22.48;18.48;;;;;;;9.77;68.50;100160.50;5039932;27;102335;-49
2021/12/25 06:52:37;;;;;;;23.23;18.63;;;;;;;9.78;67.97;100153.97;5036348;27;103866;-48
2021/12/25 06:55:05;;;;;;;20.58;18.38;;;;;;;9.78;68.08;100155.88;5038328;27;102391;-47
2021/12/25 06:57:32;;;;;;;22.67;17.83;;;;;;;9.78;68.11;100153.97;5045673;27;102758;-48
2021/12/25 06:59:58;;;;;;;22.60;18.60;;;;;;;9.78;67.73;100159.41;5052982;27;102376;-49
2021/12/25 07:02:24;;;;;;;21.25;17.25;;;;;;;9.79;68.51;100161.00;5040409;27;104200;-49
2021/12/25 07:04:52;;;;;;;22.48;17.73;;;;;;;9.79;68.05;100161.00;5053169;27;102172;-47
2021/12/25 07:07:23;;;;;;;21.27;18.25;;;;;;;9.79;68.27;100163.72;5040957;27;104076;-47
2021/12/25 07:09:50;;;;;;;23.52;18.50;;;;;;;9.80;68.25;100162.63;5044386;27;102354;-47
2021/12/25 07:12:16;;;;;;;20.90;17.95;;;;;;;9.80;68.38;100173.50;5045249;27;104092;-48
2021/12/25 07:14:43;;;;;;;22.63;18.63;;;;;;;9.79;68.59;100171.88;5045440;27;102307;-47
2021/12/25 07:17:09;;;;;;;22.23;17.77;;;;;;;9.80;67.70;100162.63;5046590;27;102217;-48
2021/12/25 07:19:36;;;;;;;19.67;16.52;;;;;;;9.80;68.38;100161.81;5050728;27;102162;-48
2021/12/25 07:22:03;;;;;;;21.15;17.25;;;;;;;9.81;67.90;100169.72;5041547;27;103961;-47
2021/12/25 07:24:31;;;;;;;21.52;17.52;;;;;;;9.82;67.82;100170.53;5040071;27;102373;-48
2021/12/25 07:27:03;;;;;;;22.77;17.70;;;;;;;9.80;68.48;100173.50;5041417;27;102672;-48
2021/12/25 07:29:29;;;;;;;20.17;16.63;;;;;;;9.81;68.55;100172.44;5036237;27;103327;-49
2021/12/25 07:31:56;;;;;;;21.75;17.70;;;;;;;9.82;68.13;100176.75;5042191;27;103914;-50
2021/12/25 07:34:22;;;;;;;20.23;17.23;;;;;;;9.83;68.59;100183.81;5039536;27;102396;-50
2021/12/25 07:36:49;;;;;;;21.98;17.23;;;;;;;9.84;68.15;100196.34;5045850;27;102357;-49
2021/12/25 07:39:15;;;;;;;20.83;17.75;;;;;;;9.83;68.04;100200.13;5036060;27;102351;-49
2021/12/25 07:41:43;;;;;;;20.38;16.48;;;;;;;9.84;67.83;100207.19;5041265;27;104216;-48
2021/12/25 07:44:09;;;;;;;21.60;18.17;;;;;;;9.84;68.75;100212.63;5036237;27;102258;-50
2021/12/25 07:46:42;;;;;;;21.67;16.70;;;;;;;9.84;68.62;100207.19;5036752;27;102802;-49
2021/12/25 07:49:15;;;;;;;20.63;16.92;;;;;;;9.84;68.00;100201.78;5045228;27;102234;-49
2021/12/25 07:51:42;;;;;;;21.58;17.05;;;;;;;9.85;68.62;100208.81;5048594;27;103950;-48
2021/12/25 07:54:08;;;;;;;20.83;17.13;;;;;;;9.86;68.53;100210.44;5044013;27;102601;-51
2021/12/25 07:56:35;;;;;;;20.48;17.38;;;;;;;9.86;68.07;100215.88;5040486;27;102582;-48
2021/12/25 07:59:19;;;;;;;20.33;16.83;;;;;;;9.86;68.26;100215.88;5039522;27;102175;-47
2021/12/25 08:01:46;;;;;;;19.38;16.70;;;;;;;9.87;68.13;100228.38;5048116;27;104135;-50
2021/12/25 08:04:12;;;;;;;22.52;17.45;;;;;;;9.87;68.23;100233.81;5037749;27;102455;-48
2021/12/25 08:06:39;;;;;;;18.92;16.35;;;;;;;9.86;68.29;100232.19;5041285;27;102302;-48
2021/12/25 08:09:06;;;;;;;19.05;16.48;;;;;;;9.89;68.28;100235.44;5045660;27;102244;-49
2021/12/25 08:11:38;;;;;;;19.23;16.42;;;;;;;9.89;68.54;100240.88;5036249;27;103957;-51
2021/12/25 08:14:04;;;;;;;20.40;16.90;;;;;;;9.89;68.70;100252.56;5050596;27;102245;-47
2021/12/25 08:16:33;;;;;;;20.70;16.92;;;;;;;9.89;68.71;100240.88;5039857;27;102493;-47
2021/12/25 08:19:00;;;;;;;18.85;16.38;;;;;;;9.89;68.52;100235.44;5052044;27;102847;-47
2021/12/25 08:21:26;;;;;;;19.67;16.58;;;;;;;9.90;68.17;100239.78;5041990;27;103893;-49
2021/12/25 08:23:54;;;;;;;18.73;15.25;;;;;;;9.91;68.39;100244.13;5049942;27;102442;-48
2021/12/25 08:26:20;;;;;;;21.60;17.33;;;;;;;9.91;68.87;100242.22;5044326;27;102040;-49
2021/12/25 08:28:47;;;;;;;19.85;15.35;;;;;;;9.91;68.29;100241.41;5050157;27;102344;-49
2021/12/25 08:31:13;;;;;;;18.80;15.52;;;;;;;9.91;68.55;100238.69;5053159;27;104381;-50
2021/12/25 08:33:41;;;;;;;18.08;15.63;;;;;;;9.91;68.56;100239.50;5038630;27;103943;-48
2021/12/25 08:36:08;;;;;;;18.17;15.50;;;;;;;9.92;68.94;100234.88;5044416;27;102012;-48
2021/12/25 08:38:35;;;;;;;19.55;16.35;;;;;;;9.92;68.72;100240.31;5044825;27;102936;-52
2021/12/25 08:41:01;;;;;;;18.35;16.15;;;;;;;9.92;68.00;100245.75;5036158;27;103942;-48
2021/12/25 08:43:34;;;;;;;18.10;15.13;;;;;;;9.93;68.66;100241.94;5036891;27;102773;-50
2021/12/25 08:46:12;;;;;;;19.17;15.65;;;;;;;9.92;68.56;100241.13;5043592;27;102344;-49
2021/12/25 08:48:40;;;;;;;19.80;16.27;;;;;;;9.93;68.71;100242.75;5042519;27;102460;-49
2021/12/25 08:51:07;;;;;;;19.08;15.30;;;;;;;9.93;68.72;100242.75;5041556;27;103975;-51
2021/12/25 08:53:33;;;;;;;19.73;15.43;;;;;;;9.93;68.10;100242.75;5043861;27;102519;-50
2021/12/25 08:56:00;;;;;;;19.48;15.30;;;;;;;9.94;68.62;100249.00;5039941;27;102569;-50
2021/12/25 08:58:30;;;;;;;19.35;14.70;;;;;;;9.94;68.61;100241.66;5043220;27;102306;-48
2021/12/25 09:01:01;;;;;;;17.45;15.45;;;;;;;9.94;69.08;100225.34;5048950;27;103958;-48
2021/12/25 09:03:29;;;;;;;19.42;15.18;;;;;;;9.96;68.60;100230.53;5039000;27;102078;-50
2021/12/25 09:05:59;;;;;;;17.55;14.57;;;;;;;9.96;69.07;100225.09;5038069;27;102533;-50
2021/12/25 09:08:26;;;;;;;17.65;14.65;;;;;;;9.96;68.25;100225.09;5057877;27;102198;-49
2021/12/25 09:10:53;;;;;;;16.77;14.20;;;;;;;9.96;68.52;100225.09;5052794;27;103992;-48
2021/12/25 09:13:20;;;;;;;17.40;14.60;;;;;;;9.96;69.10;100223.19;5054048;27;102212;-48
2021/12/25 09:15:46;;;;;;;18.42;15.63;;;;;;;9.98;68.97;100228.31;5036255;27;101963;-47
2021/12/25 09:18:12;;;;;;;18.17;15.45;;;;;;;9.98;68.33;100222.88;5045326;27;102089;-48
2021/12/25 09:20:48;;;;;;;17.88;15.07;;;;;;;9.99;68.36;100221.78;5036127;27;103890;-49
2021/12/25 09:23:16;;;;;;;18.27;14.95;;;;;;;9.99;68.88;100214.47;5048441;27;102402;-48
2021/12/25 09:25:43;;;;;;;16.52;13.90;;;;;;;10.00;68.44;100220.72;5044693;27;102958;-49
2021/12/25 09:28:09;;;;;;;16.02;14.00;;;;;;;10.00;68.24;100218.00;5042188;27;102382;-48
2021/12/25 09:30:36;;;;;;;76.28;19.40;;;;;;;10.00;68.99;100216.09;5036007;27;104061;-49
2021/12/25 09:33:03;;;;;;;29.45;15.25;;;;;;;10.03;69.06;100225.59;5036037;27;102149;-48
2021/12/25 09:35:31;;;;;;;18.60;15.10;;;;;;;10.03;68.70;100222.88;5042251;27;101970;-50
2021/12/25 09:37:57;;;;;;;18.05;14.95;;;;;;;10.04;68.78;100228.03;5046408;27;102558;-48
2021/12/25 09:40:25;;;;;;;19.17;14.75;;;;;;;10.04;69.00;100238.09;5042668;27;104247;-48
2021/12/25 09:42:53;;;;;;;16.80;14.03;;;;;;;10.04;68.93;100233.47;5037208;27;102416;-50
2021/12/25 09:45:20;;;;;;;18.98;14.20;;;;;;;10.04;69.18;100232.66;5040916;27;102250;-49
2021/12/25 09:47:47;;;;;;;17.25;14.38;;;;;;;10.05;68.62;100235.06;5040958;27;102612;-48
2021/12/25 09:50:14;;;;;;;16.80;14.07;;;;;;;10.05;68.79;100240.53;5049289;27;103890;-50
2021/12/25 09:52:41;;;;;;;17.90;14.27;;;;;;;10.05;68.60;100239.72;5040714;27;102555;-48
2021/12/25 09:55:08;;;;;;;18.10;14.50;;;;;;;10.06;68.64;100235.88;5034998;27;102084;-47
2021/12/25 09:57:37;;;;;;;17.42;14.55;;;;;;;10.06;68.71;100238.59;5035649;27;102125;-50
2021/12/25 10:00:09;;;;;;;16.30;14.35;;;;;;;10.05;68.88;100237.00;5034292;27;104033;-48
2021/12/25 10:02:43;;;;;;;16.70;14.85;;;;;;;10.05;68.80;100228.84;5041124;27;102330;-47
2021/12/25 10:05:10;;;;;;;15.60;13.80;;;;;;;10.05;68.96;100224.22;5039624;27;101914;-47
2021/12/25 10:07:36;;;;;;;16.30;13.90;;;;;;;10.05;68.37;100228.84;5044121;27;103501;-47
2021/12/25 10:10:06;;;;;;;15.80;13.98;;;;;;;10.05;68.69;100229.63;5034692;27;106001;-47
2021/12/25 10:12:41;;;;;;;16.95;13.77;;;;;;;10.05;68.76;100226.91;5044918;27;102834;-49
2021/12/25 10:15:11;;;;;;;16.83;13.48;;;;;;;10.06;68.67;100233.16;5033671;27;102146;-47
2021/12/25 10:17:45;;;;;;;18.40;13.93;;;;;;;10.04;68.91;100222.59;5044534;27;102600;-47
2021/12/25 10:20:15;;;;;;;16.27;14.25;;;;;;;10.05;68.58;100217.97;5047858;27;103483;-48
2021/12/25 10:22:57;;;;;;;17.48;14.13;;;;;;;10.05;68.79;100216.06;5040901;27;102236;-47
2021/12/25 10:25:27;;;;;;;17.88;14.95;;;;;;;10.06;68.58;100214.13;5049171;27;102435;-49
2021/12/25 10:27:57;;;;;;;20.40;14.80;;;;;;;10.05;69.23;100204.38;5042281;27;102860;-48
2021/12/25 10:30:24;;;;;;;15.43;13.80;;;;;;;10.05;68.59;100213.31;5041762;27;103874;-48
2021/12/25 10:32:50;;;;;;;16.77;13.63;;;;;;;10.06;68.27;100208.69;5052185;27;102304;-50
2021/12/25 10:35:19;;;;;;;17.60;14.65;;;;;;;10.06;68.87;100203.25;5041850;27;102412;-48
2021/12/25 10:37:47;;;;;;;17.37;13.67;;;;;;;10.06;68.91;100205.97;5042783;27;102675;-47
2021/12/25 10:40:26;;;;;;;16.00;13.82;;;;;;;10.05;68.91;100201.66;5022066;28;104013;-48
2021/12/25 10:42:58;;;;;;;17.30;14.00;;;;;;;10.06;68.96;100197.81;5050842;27;102166;-49
2021/12/25 10:45:28;;;;;;;17.02;13.80;;;;;;;10.07;68.90;100210.34;5036820;27;103185;-48
2021/12/25 10:48:05;;;;;;;15.50;13.27;;;;;;;10.06;69.13;100203.25;5038135;27;105556;-48
2021/12/25 10:50:38;;;;;;;16.63;13.93;;;;;;;10.06;69.17;100197.81;5035518;27;103784;-49
2021/12/25 10:53:24;;;;;;;17.13;14.02;;;;;;;10.06;68.49;100195.94;5039651;27;102611;-48
2021/12/25 10:55:50;;;;;;;17.92;13.80;;;;;;;10.06;68.38;100195.09;5036297;27;102326;-50
2021/12/25 10:58:21;;;;;;;16.60;13.20;;;;;;;10.06;68.79;100197.81;5039663;27;102185;-49
2021/12/25 11:00:54;;;;;;;16.90;13.73;;;;;;;10.06;68.68;100190.50;5037066;27;103900;-47
2021/12/25 11:03:27;;;;;;;15.63;13.18;;;;;;;10.07;68.43;100210.34;5041173;27;102075;-48
2021/12/25 11:05:54;;;;;;;16.50;13.63;;;;;;;10.06;68.39;100203.25;5038127;27;102729;-48
2021/12/25 11:08:22;;;;;;;17.15;13.88;;;;;;;10.07;69.06;100207.63;5051640;27;102677;-48
2021/12/25 11:10:52;;;;;;;17.07;13.83;;;;;;;10.06;68.80;100214.13;5039673;27;103941;-48
2021/12/25 11:13:20;;;;;;;;;;;;;;;10.07;69.02;100221.22;5037323;27;102337;-48
2021/12/25 11:15:49;;;;;;;16.60;13.27;;;;;;;10.07;68.39;100221.22;5035688;27;102248;-48
2021/12/25 11:18:17;;;;;;;18.25;14.55;;;;;;;10.07;68.96;100215.78;5047669;27;103904;-48
2021/12/25 11:20:46;;;;;;;16.50;13.85;;;;;;;10.07;68.64;100221.22;5047853;27;104170;-48
2021/12/25 11:23:13;;;;;;;14.90;12.97;;;;;;;10.07;68.29;100218.50;5043243;27;102422;-49
2021/12/25 11:25:42;;;;;;;15.57;12.93;;;;;;;10.07;68.59;100227.47;5037073;27;102970;-49
2021/12/25 11:28:11;;;;;;;17.38;13.02;;;;;;;10.06;68.74;100225.84;5048295;27;102188;-48
2021/12/25 11:30:41;;;;;;;16.80;13.77;;;;;;;10.07;69.05;100232.09;5040669;27;103994;-50
2021/12/25 11:33:08;;;;;;;15.52;13.50;;;;;;;10.08;68.78;100228.28;5040966;27;102584;-50
2021/12/25 11:35:36;;;;;;;16.17;13.13;;;;;;;10.07;69.06;100221.22;5046692;27;102331;-48
2021/12/25 11:38:05;;;;;;;15.75;13.02;;;;;;;10.07;68.77;100226.66;5038412;27;102543;-51
2021/12/25 11:40:37;;;;;;;;;;;;;;;10.08;68.71;100228.28;5045446;27;103901;-49
2021/12/25 11:43:04;;;;;;;15.95;13.13;;;;;;;10.07;68.86;100234.81;5049194;27;102319;-47
2021/12/25 11:45:36;;;;;;;26.90;13.98;;;;;;;10.07;69.00;100234.81;5044118;27;103403;-47
2021/12/25 11:48:14;;;;;;;29.55;14.98;;;;;;;10.07;69.03;100240.25;5041931;27;103741;-48
2021/12/25 11:50:43;;;;;;;31.10;15.50;;;;;;;10.07;68.67;100248.41;5042446;27;103899;-49
2021/12/25 11:53:21;;;;;;;31.75;14.20;;;;;;;10.08;68.71;100250.03;5049997;27;102702;-47
2021/12/25 11:58:41;;;;;;;25.33;14.43;;;;;;;10.07;68.37;100254.66;5050384;27;103040;-50
2021/12/25 12:01:26;;;;;;;22.80;13.95;;;;;;;10.08;68.92;100263.63;5042921;27;103961;-48
2021/12/25 12:03:57;;;;;;;20.15;13.15;;;;;;;10.08;68.50;100266.34;5039066;27;102063;-49
2021/12/25 12:06:56;;;;;;;19.50;13.32;;;;;;;10.07;69.42;100287.28;5049192;27;102688;-49
2021/12/25 12:09:27;;;;;;;25.48;13.88;;;;;;;10.08;68.70;100282.66;5016261;27;103437;-49
2021/12/25 12:12:10;;;;;;;18.35;13.90;;;;;;;10.08;69.20;100282.66;5045115;27;103897;-50
2021/12/25 12:14:36;;;;;;;27.23;14.95;;;;;;;10.08;69.12;100277.22;5049920;27;102129;-50
2021/12/25 12:17:06;;;;;;;23.42;13.73;;;;;;;10.09;68.85;100278.84;5048812;27;102343;-50
2021/12/25 12:19:52;;;;;;;25.92;13.90;;;;;;;10.08;69.20;100282.66;5045453;27;102780;-49
2021/12/25 12:22:55;;;;;;;25.23;14.25;;;;;;;10.07;69.30;100281.03;5039906;27;104149;-49
2021/12/25 12:28:06;;;;;;;22.88;13.50;;;;;;;10.09;68.73;100284.28;5039718;27;102377;-50
2021/12/25 12:30:49;;;;;;;19.13;12.98;;;;;;;10.09;68.80;100273.41;5041645;27;103081;-49
2021/12/25 12:33:35;;;;;;;24.42;14.02;;;;;;;10.09;69.12;100284.28;5038105;27;104080;-50
2021/12/25 12:36:19;;;;;;;17.85;12.52;;;;;;;10.09;68.73;100273.41;5042168;27;102207;-49
2021/12/25 12:38:48;;;;;;;19.85;12.98;;;;;;;10.08;69.11;100277.22;5040914;27;102679;-49
2021/12/25 12:41:27;;;;;;;18.33;12.63;;;;;;;10.09;68.84;100273.41;5043778;27;102016;-50
2021/12/25 12:44:12;;;;;;;17.40;12.35;;;;;;;10.09;68.71;100276.13;5038216;27;103829;-49